createdAt,value
2022-11-03T00:04:28.755Z,0
2022-11-03T00:10:51.809Z,0
2022-11-03T00:17:11.786Z,0
2022-11-03T00:23:34.820Z,0
2022-11-03T00:29:54.849Z,0
2022-11-03T00:36:17.750Z,0
2022-11-03T00:42:37.886Z,0
2022-11-03T00:49:00.796Z,0
2022-11-03T00:55:20.860Z,0
2022-11-03T01:01:46.947Z,0
2022-11-03T01:08:03.748Z,0
2022-11-03T01:14:26.828Z,0
2022-11-03T01:20:46.726Z,0
2022-11-03T01:27:09.835Z,0
2022-11-03T01:33:29.827Z,0
2022-11-03T01:39:52.813Z,0
2022-11-03T01:46:12.759Z,0
2022-11-03T01:52:35.802Z,0
2022-11-03T01:58:55.802Z,0
2022-11-03T02:05:18.792Z,0
2022-11-03T02:11:38.779Z,0
2022-11-03T02:18:01.759Z,0
2022-11-03T02:24:21.778Z,0
2022-11-03T02:30:44.772Z,0
2022-11-03T02:37:04.816Z,0
2022-11-03T02:43:27.824Z,0
2022-11-03T02:49:47.817Z,0
2022-11-03T02:56:10.820Z,0
2022-11-03T03:02:30.787Z,0
2022-11-03T03:08:53.811Z,0
2022-11-03T03:15:13.835Z,0
2022-11-03T03:21:36.783Z,0
2022-11-03T03:27:56.808Z,0
2022-11-03T03:34:36.214Z,0
2022-11-03T03:40:39.834Z,0
2022-11-03T03:47:02.771Z,0
2022-11-03T03:53:22.770Z,0
2022-11-03T03:59:45.763Z,0
2022-11-03T04:06:05.794Z,0
2022-11-03T04:12:28.774Z,0
2022-11-03T04:36:37.726Z,0
2022-11-03T04:42:57.736Z,0
2022-11-03T04:49:20.784Z,0
2022-11-03T04:55:40.770Z,0
2022-11-03T05:02:03.892Z,0
2022-11-03T05:08:23.811Z,0
2022-11-03T05:14:46.764Z,0
2022-11-03T05:21:06.847Z,0
2022-11-03T05:27:29.754Z,0
2022-11-03T05:33:49.781Z,0
2022-11-03T05:40:12.808Z,0
2022-11-03T05:46:32.784Z,0
2022-11-03T05:52:55.818Z,0
2022-11-03T05:59:15.790Z,0
2022-11-03T06:05:38.762Z,0
2022-11-03T06:11:58.826Z,0
2022-11-03T06:18:21.745Z,0
2022-11-03T06:24:41.786Z,0
2022-11-03T06:31:04.755Z,0
2022-11-03T06:37:24.764Z,0
2022-11-03T06:43:47.795Z,0
2022-11-03T06:50:07.780Z,0
2022-11-03T06:56:30.838Z,5.62
2022-11-03T07:02:50.781Z,5.62
2022-11-03T07:09:14.034Z,5.62
2022-11-03T07:15:33.994Z,5.62
2022-11-03T07:21:56.802Z,5.62
2022-11-03T07:28:16.807Z,11.25
2022-11-03T07:34:39.779Z,11.25
2022-11-03T07:40:59.789Z,22.5
2022-11-03T07:47:22.928Z,28.12
2022-11-03T07:53:42.774Z,28.12
2022-11-03T08:00:07.252Z,33.75
2022-11-03T08:06:25.802Z,33.75
2022-11-03T08:12:48.803Z,28.12
2022-11-03T08:19:08.800Z,22.5
2022-11-03T08:25:31.819Z,28.12
2022-11-03T08:31:51.847Z,28.12
2022-11-03T08:38:14.776Z,33.75
2022-11-03T08:44:34.804Z,33.75
2022-11-03T08:50:57.812Z,39.38
2022-11-03T08:57:17.763Z,39.38
2022-11-03T09:03:40.948Z,39.38
2022-11-03T09:16:23.804Z,50.62
2022-11-03T09:22:43.781Z,45
2022-11-03T09:29:06.780Z,50.62
2022-11-03T09:52:29.308Z,45
2022-11-03T09:58:53.950Z,45
2022-11-03T10:05:11.829Z,50.62
2022-11-03T10:11:31.788Z,50.62
2022-11-03T10:17:54.743Z,45
2022-11-03T10:24:14.787Z,45
2022-11-03T10:30:57.836Z,45
2022-11-03T10:36:57.791Z,45
2022-11-03T10:43:20.788Z,50.62
2022-11-03T10:49:43.597Z,45
2022-11-03T10:56:03.799Z,39.38
2022-11-03T11:02:23.787Z,33.75
2022-11-03T11:08:46.860Z,33.75
2022-11-03T11:15:06.805Z,33.75
2022-11-03T11:21:31.970Z,33.75
2022-11-03T11:27:51.976Z,39.38
2022-11-03T11:34:12.772Z,33.75
2022-11-03T11:40:32.801Z,39.38
2022-11-03T11:46:55.865Z,33.75
2022-11-03T11:53:15.746Z,22.5
2022-11-03T11:59:38.844Z,16.88
2022-11-03T12:05:58.780Z,16.88
2022-11-03T12:12:21.862Z,11.25
2022-11-03T12:18:46.244Z,22.5
2022-11-03T12:25:04.818Z,22.5
2022-11-03T12:31:24.844Z,28.12
2022-11-03T12:37:47.795Z,22.5
2022-11-03T12:44:08.295Z,16.88
2022-11-03T12:50:30.787Z,16.88
2022-11-03T12:56:50.786Z,16.88
2022-11-03T13:03:13.937Z,16.88
2022-11-03T13:09:33.875Z,16.88
2022-11-03T13:15:57.003Z,11.25
2022-11-03T13:22:16.813Z,11.25
2022-11-03T13:28:39.767Z,11.25
2022-11-03T13:34:59.774Z,16.88
2022-11-03T13:41:22.775Z,16.88
2022-11-03T13:48:37.792Z,16.88
2022-11-03T14:00:25.811Z,11.25
2022-11-03T14:06:48.809Z,5.62
2022-11-03T14:13:09.271Z,5.62
2022-11-03T14:19:38.110Z,5.62
2022-11-03T14:25:55.693Z,5.62
2022-11-03T14:32:14.881Z,0
2022-11-03T14:38:34.833Z,5.62
2022-11-03T14:44:57.852Z,5.62
2022-11-03T15:01:23.755Z,0
2022-11-03T15:07:43.707Z,0
2022-11-03T15:14:06.727Z,0
2022-11-03T15:20:26.779Z,0
2022-11-03T15:26:49.778Z,0
2022-11-03T15:33:09.903Z,0
2022-11-03T15:39:32.796Z,0
2022-11-03T15:45:52.950Z,0
2022-11-03T15:52:15.891Z,0
2022-11-03T15:58:35.821Z,0
2022-11-03T16:04:58.942Z,0
2022-11-03T16:11:19.079Z,0
2022-11-03T16:17:45.472Z,0
2022-11-03T16:24:01.849Z,0
2022-11-03T16:30:24.776Z,0
2022-11-03T16:36:44.831Z,0
2022-11-03T16:43:07.748Z,0
2022-11-03T16:49:27.832Z,0
2022-11-03T16:55:50.801Z,0
2022-11-03T17:02:15.128Z,0
2022-11-03T17:14:55.586Z,0
2022-11-03T17:21:16.783Z,0
2022-11-03T17:27:36.810Z,0
2022-11-03T17:33:59.776Z,0
2022-11-03T17:40:19.795Z,0
2022-11-03T17:46:42.754Z,0
2022-11-03T17:53:02.828Z,0
2022-11-03T17:59:25.759Z,0
2022-11-03T18:05:45.735Z,0
2022-11-03T18:12:08.868Z,0
2022-11-03T18:18:28.753Z,0
2022-11-03T18:24:51.816Z,0
2022-11-03T18:31:11.757Z,0
2022-11-03T18:37:34.735Z,0
2022-11-03T18:43:54.787Z,0
2022-11-03T18:50:17.759Z,0
2022-11-03T18:56:38.309Z,0
2022-11-03T19:03:00.819Z,0
2022-11-03T19:09:20.758Z,0
2022-11-03T19:15:43.781Z,0
2022-11-03T19:22:03.730Z,0
2022-11-03T19:28:26.774Z,0
2022-11-03T19:34:46.768Z,0
2022-11-03T19:41:09.722Z,0
2022-11-03T19:47:31.491Z,0
2022-11-03T20:12:15.187Z,0
2022-11-03T20:18:34.779Z,0
2022-11-03T20:24:57.758Z,0
2022-11-03T20:31:17.801Z,0
2022-11-03T20:37:40.750Z,0
2022-11-03T20:44:00.799Z,0
2022-11-03T20:50:23.779Z,0
2022-11-03T20:56:43.759Z,0
2022-11-03T21:03:07.037Z,0
2022-11-03T21:09:26.756Z,0
2022-11-03T21:16:10.817Z,0
2022-11-03T21:22:24.788Z,0
2022-11-03T21:28:32.791Z,0
2022-11-03T21:34:52.770Z,0
2022-11-03T21:41:15.746Z,0
2022-11-03T21:47:35.804Z,0
2022-11-03T21:53:58.736Z,0
2022-11-03T22:00:18.782Z,0
2022-11-03T22:06:41.779Z,0
2022-11-03T22:13:01.734Z,0
2022-11-03T22:19:24.860Z,0
2022-11-03T22:25:44.827Z,0
2022-11-03T22:32:07.871Z,0
2022-11-03T22:38:27.785Z,0
2022-11-03T22:44:50.767Z,0
2022-11-03T22:51:10.791Z,0
2022-11-03T22:57:33.771Z,0
2022-11-03T23:20:31.774Z,0
2022-11-03T23:26:51.780Z,0
2022-11-03T23:33:14.821Z,0
2022-11-03T23:39:34.773Z,0
2022-11-03T23:45:57.771Z,0
2022-11-03T23:52:17.786Z,0
2022-11-03T23:58:40.852Z,0
